createdAt,value
2023-07-09T00:01:00.995Z,20.70
2023-07-09T00:03:27.467Z,20.68
2023-07-09T00:05:53.897Z,20.62
2023-07-09T00:08:28.557Z,20.62
2023-07-09T00:10:59.241Z,20.61
2023-07-09T00:13:28.072Z,20.58
2023-07-09T00:16:02.261Z,20.57
2023-07-09T00:18:29.299Z,20.53
2023-07-09T00:20:55.723Z,20.52
2023-07-09T00:23:28.470Z,20.44
2023-07-09T00:25:55.059Z,20.42
2023-07-09T00:28:21.510Z,20.43
2023-07-09T00:30:49.447Z,20.40
2023-07-09T00:33:19.480Z,20.40
2023-07-09T00:35:47.472Z,20.38
2023-07-09T00:38:24.474Z,20.38
2023-07-09T00:41:00.307Z,20.43
2023-07-09T00:43:31.632Z,20.42
2023-07-09T00:46:19.911Z,20.54
2023-07-09T00:49:08.502Z,20.53
2023-07-09T00:51:43.062Z,20.43
2023-07-09T00:54:19.997Z,20.39
2023-07-09T00:56:52.092Z,20.32
2023-07-09T00:59:25.228Z,20.24
2023-07-09T01:01:53.445Z,20.22
2023-07-09T01:04:22.526Z,20.31
2023-07-09T01:06:53.363Z,20.26
2023-07-09T01:09:20.280Z,20.21
2023-07-09T01:11:52.005Z,20.15
2023-07-09T01:14:22.401Z,20.12
2023-07-09T01:16:58.510Z,20.07
2023-07-09T01:19:26.628Z,19.99
2023-07-09T01:22:02.345Z,19.95
2023-07-09T01:25:08.066Z,19.93
2023-07-09T01:27:44.629Z,19.89
2023-07-09T01:30:17.829Z,19.87
2023-07-09T01:32:47.193Z,19.83
2023-07-09T01:35:16.080Z,19.80
2023-07-09T01:37:44.862Z,19.75
2023-07-09T01:40:28.863Z,19.75
2023-07-09T01:42:59.318Z,19.78
2023-07-09T01:48:15.381Z,19.78
2023-07-09T01:50:44.100Z,19.79
2023-07-09T01:53:15.603Z,19.76
2023-07-09T01:55:45.098Z,19.72
2023-07-09T01:58:12.028Z,19.67
2023-07-09T02:00:41.163Z,19.64
2023-07-09T02:03:07.761Z,19.57
2023-07-09T02:05:34.621Z,19.57
2023-07-09T02:08:01.195Z,19.54
2023-07-09T02:10:27.700Z,19.50
2023-07-09T02:12:54.733Z,19.48
2023-07-09T02:15:21.569Z,19.47
2023-07-09T02:17:50.474Z,19.49
2023-07-09T02:20:20.221Z,19.45
2023-07-09T02:22:47.159Z,19.43
2023-07-09T02:25:18.578Z,19.40
2023-07-09T02:27:45.011Z,19.36
2023-07-09T02:30:12.273Z,19.33
2023-07-09T02:32:39.078Z,19.33
2023-07-09T02:35:05.832Z,19.28
2023-07-09T02:37:35.207Z,19.26
2023-07-09T02:40:05.264Z,19.25
2023-07-09T02:42:31.818Z,19.21
2023-07-09T02:44:58.258Z,19.19
2023-07-09T02:47:27.264Z,19.16
2023-07-09T02:49:53.724Z,19.12
2023-07-09T02:52:20.203Z,19.12
2023-07-09T02:54:46.659Z,19.11
2023-07-09T02:57:13.342Z,19.07
2023-07-09T02:59:39.974Z,19.05
2023-07-09T03:02:06.893Z,19.05
2023-07-09T03:04:33.881Z,19.04
2023-07-09T03:07:01.028Z,19.02
2023-07-09T03:09:28.828Z,19.01
2023-07-09T03:11:55.669Z,18.97
2023-07-09T03:14:22.089Z,18.97
2023-07-09T03:16:48.625Z,18.95
2023-07-09T03:19:15.148Z,18.90
2023-07-09T03:21:41.565Z,18.84
2023-07-09T03:24:09.319Z,18.81
2023-07-09T03:26:36.200Z,18.75
2023-07-09T03:29:07.672Z,18.74
2023-07-09T03:31:36.214Z,18.71
2023-07-09T03:34:03.687Z,18.67
2023-07-09T03:36:30.919Z,18.62
2023-07-09T03:38:59.852Z,18.58
2023-07-09T03:41:26.529Z,18.54
2023-07-09T03:43:54.384Z,18.49
2023-07-09T03:46:21.518Z,18.47
2023-07-09T03:48:48.155Z,18.47
2023-07-09T03:51:15.258Z,18.44
2023-07-09T03:53:41.876Z,18.43
2023-07-09T03:56:08.415Z,18.39
2023-07-09T03:58:36.480Z,18.42
2023-07-09T04:01:03.248Z,18.43
2023-07-09T04:03:29.838Z,18.41
2023-07-09T04:05:56.331Z,18.39
2023-07-09T04:08:22.818Z,18.41
2023-07-09T04:10:49.357Z,18.42
2023-07-09T04:13:17.837Z,18.43
2023-07-09T04:15:47.896Z,18.45
2023-07-09T04:18:14.337Z,18.48
2023-07-09T04:20:40.732Z,18.48
2023-07-09T04:23:07.619Z,18.50
2023-07-09T04:25:34.017Z,18.54
2023-07-09T04:28:00.889Z,18.56
2023-07-09T04:30:27.518Z,18.60
2023-07-09T04:32:54.102Z,18.69
2023-07-09T04:35:20.601Z,18.76
2023-07-09T04:37:47.119Z,18.91
2023-07-09T04:40:14.693Z,18.93
2023-07-09T04:42:43.415Z,18.97
2023-07-09T04:45:12.126Z,19.03
2023-07-09T04:47:39.623Z,19.07
2023-07-09T04:50:08.866Z,19.12
2023-07-09T04:52:38.178Z,19.22
2023-07-09T04:55:05.293Z,19.31
2023-07-09T04:57:31.765Z,19.37
2023-07-09T04:59:58.258Z,19.44
2023-07-09T05:02:24.964Z,19.53
2023-07-09T05:04:51.902Z,19.61
2023-07-09T05:07:21.457Z,19.69
2023-07-09T05:09:48.403Z,19.80
2023-07-09T05:12:14.937Z,19.96
2023-07-09T05:14:41.665Z,20.14
2023-07-09T05:17:08.806Z,20.31
2023-07-09T05:19:37.664Z,20.44
2023-07-09T05:22:04.758Z,20.62
2023-07-09T05:24:31.430Z,20.78
2023-07-09T05:27:03.032Z,20.91
2023-07-09T05:29:29.695Z,21.04
2023-07-09T05:31:56.104Z,21.18
2023-07-09T05:34:22.615Z,21.33
2023-07-09T05:36:51.668Z,21.44
2023-07-09T05:39:18.064Z,21.57
2023-07-09T05:41:44.927Z,21.69
2023-07-09T05:44:11.390Z,21.84
2023-07-09T05:46:38.497Z,21.97
2023-07-09T05:49:07.191Z,22.08
2023-07-09T05:51:34.233Z,22.13
2023-07-09T05:54:03.333Z,22.15
2023-07-09T05:56:30.306Z,22.33
2023-07-09T05:58:57.884Z,22.49
2023-07-09T06:01:25.128Z,22.46
2023-07-09T06:03:51.861Z,22.64
2023-07-09T06:06:18.450Z,22.72
2023-07-09T06:08:44.890Z,22.83
2023-07-09T06:11:14.073Z,22.96
2023-07-09T06:13:40.693Z,23.08
2023-07-09T06:16:07.760Z,23.23
2023-07-09T06:18:36.855Z,23.36
2023-07-09T06:21:04.434Z,23.35
2023-07-09T06:23:31.683Z,23.50
2023-07-09T06:25:58.151Z,23.64
2023-07-09T06:28:27.243Z,23.85
2023-07-09T06:30:53.703Z,24.01
2023-07-09T06:33:20.684Z,24.14
2023-07-09T06:35:54.404Z,24.30
2023-07-09T06:38:29.208Z,24.36
2023-07-09T06:40:56.424Z,24.62
2023-07-09T06:43:22.936Z,24.77
2023-07-09T06:46:00.807Z,24.93
2023-07-09T06:48:29.080Z,25.15
2023-07-09T06:51:01.481Z,25.30
2023-07-09T06:53:29.454Z,25.41
2023-07-09T06:56:00.197Z,25.51
2023-07-09T06:58:28.872Z,25.68
2023-07-09T07:01:00.810Z,25.85
2023-07-09T07:03:27.593Z,25.97
2023-07-09T07:05:58.388Z,26.18
2023-07-09T07:08:26.522Z,26.30
2023-07-09T07:11:03.712Z,26.51
2023-07-09T07:13:31.366Z,26.65
2023-07-09T07:15:57.970Z,26.81
2023-07-09T07:18:24.697Z,26.92
2023-07-09T07:20:52.128Z,27.10
2023-07-09T07:23:19.488Z,27.22
2023-07-09T07:25:46.958Z,27.44
2023-07-09T07:28:14.017Z,27.55
2023-07-09T07:30:43.253Z,27.64
2023-07-09T07:33:09.816Z,27.80
2023-07-09T07:35:38.548Z,27.90
2023-07-09T07:38:11.233Z,27.93
2023-07-09T07:40:37.690Z,27.89
2023-07-09T07:43:06.447Z,28.17
2023-07-09T07:45:32.854Z,28.26
2023-07-09T07:47:59.252Z,28.43
2023-07-09T07:50:25.663Z,28.51
2023-07-09T07:52:54.793Z,28.49
2023-07-09T07:55:21.195Z,28.72
2023-07-09T07:57:50.179Z,28.94
2023-07-09T08:00:17.463Z,29.10
2023-07-09T08:02:44.096Z,29.32
2023-07-09T08:05:10.527Z,29.44
2023-07-09T08:07:37.171Z,29.66
2023-07-09T08:10:06.018Z,29.84
2023-07-09T08:12:33.292Z,29.84
2023-07-09T08:14:59.745Z,30.06
2023-07-09T08:17:26.189Z,30.18
2023-07-09T08:19:55.372Z,30.15
2023-07-09T08:22:23.035Z,30.25
2023-07-09T08:24:50.451Z,30.39
2023-07-09T08:27:16.870Z,30.59
2023-07-09T08:29:43.362Z,30.74
2023-07-09T08:32:11.418Z,30.77
2023-07-09T08:34:54.463Z,30.96
2023-07-09T08:37:27.335Z,31.13
2023-07-09T08:39:53.844Z,31.19
2023-07-09T08:42:29.886Z,31.29
2023-07-09T08:45:05.820Z,31.38
2023-07-09T08:47:53.262Z,31.52
2023-07-09T08:50:25.894Z,31.53
2023-07-09T08:52:56.905Z,31.64
2023-07-09T08:55:25.886Z,31.84
2023-07-09T08:58:15.816Z,31.50
2023-07-09T09:00:56.832Z,31.39
2023-07-09T09:03:30.453Z,31.17
2023-07-09T09:05:57.866Z,31.60
2023-07-09T09:08:59.244Z,31.77
2023-07-09T09:11:46.395Z,31.88
2023-07-09T09:14:28.795Z,32.19
2023-07-09T09:16:57.122Z,32.33
2023-07-09T09:19:27.876Z,32.08
2023-07-09T09:22:05.926Z,32.21
2023-07-09T09:24:37.628Z,32.28
2023-07-09T09:27:04.386Z,32.23
2023-07-09T09:29:30.826Z,32.38
2023-07-09T09:31:59.557Z,32.51
2023-07-09T09:34:29.722Z,32.58
2023-07-09T09:36:59.204Z,32.60
2023-07-09T09:39:29.035Z,32.73
2023-07-09T09:41:57.788Z,32.89
2023-07-09T09:44:29.704Z,32.98
2023-07-09T09:47:00.561Z,33.15
2023-07-09T09:49:28.801Z,33.13
2023-07-09T09:51:57.548Z,33.09
2023-07-09T09:54:32.448Z,33.20
2023-07-09T09:56:58.940Z,33.37
2023-07-09T09:59:31.375Z,33.57
2023-07-09T10:02:02.711Z,33.74
2023-07-09T10:04:31.790Z,33.95
2023-07-09T10:07:06.818Z,33.65
2023-07-09T10:09:51.575Z,33.91
2023-07-09T10:12:24.032Z,33.89
2023-07-09T10:15:02.040Z,33.88
2023-07-09T10:17:37.298Z,34.11
2023-07-09T10:20:11.344Z,34.23
2023-07-09T10:23:16.459Z,34.06
2023-07-09T10:25:52.191Z,34.11
2023-07-09T10:28:47.659Z,34.15
2023-07-09T10:31:41.581Z,33.82
2023-07-09T10:34:08.274Z,34.14
2023-07-09T10:37:15.024Z,34.35
2023-07-09T10:39:57.991Z,34.36
2023-07-09T10:42:38.863Z,34.32
2023-07-09T10:45:34.404Z,34.34
2023-07-09T10:48:07.507Z,34.42
2023-07-09T10:50:39.827Z,34.55
2023-07-09T10:53:53.810Z,34.40
2023-07-09T10:56:27.119Z,34.38
2023-07-09T10:58:56.357Z,34.33
2023-07-09T11:01:32.299Z,34.35
2023-07-09T11:04:09.839Z,34.43
2023-07-09T11:06:48.699Z,34.40
2023-07-09T11:09:27.966Z,34.44
2023-07-09T11:12:00.830Z,34.52
2023-07-09T11:14:44.412Z,34.72
2023-07-09T11:17:20.177Z,34.92
2023-07-09T11:19:54.596Z,34.96
2023-07-09T11:22:26.986Z,34.95
2023-07-09T11:25:07.982Z,34.93
2023-07-09T11:27:46.197Z,34.87
2023-07-09T11:30:29.885Z,34.98
2023-07-09T11:33:23.081Z,35.02
2023-07-09T11:35:54.567Z,35.06
2023-07-09T11:38:26.171Z,35.22
2023-07-09T11:40:55.147Z,35.30
2023-07-09T11:43:29.293Z,35.27
2023-07-09T11:45:59.722Z,35.37
2023-07-09T11:48:30.407Z,35.24
2023-07-09T11:51:02.882Z,35.39
2023-07-09T11:53:41.975Z,35.47
2023-07-09T11:56:09.575Z,35.76
2023-07-09T11:58:48.756Z,35.39
2023-07-09T12:01:21.478Z,35.42
2023-07-09T12:03:48.957Z,35.66
2023-07-09T12:06:25.467Z,35.92
2023-07-09T12:08:52.970Z,35.96
2023-07-09T12:11:31.613Z,35.90
2023-07-09T12:14:07.194Z,35.93
2023-07-09T12:16:40.711Z,35.93
2023-07-09T12:19:07.608Z,36.05
2023-07-09T12:21:39.306Z,35.90
2023-07-09T12:24:27.640Z,35.99
2023-07-09T12:27:00.144Z,36.02
2023-07-09T12:29:30.198Z,35.94
2023-07-09T12:32:03.679Z,35.98
2023-07-09T12:34:32.769Z,36.03
2023-07-09T12:36:59.400Z,36.42
2023-07-09T12:39:28.181Z,36.44
2023-07-09T12:42:01.925Z,36.60
2023-07-09T12:44:36.957Z,36.66
2023-07-09T12:47:03.887Z,36.67
2023-07-09T12:49:38.644Z,36.79
2023-07-09T12:52:14.647Z,36.68
2023-07-09T12:54:41.045Z,36.41
2023-07-09T12:57:18.136Z,36.43
2023-07-09T12:59:47.270Z,36.16
2023-07-09T13:02:24.446Z,36.26
2023-07-09T13:04:59.209Z,36.08
2023-07-09T13:07:30.921Z,35.98
2023-07-09T13:09:58.085Z,36.02
2023-07-09T13:12:32.599Z,35.96
2023-07-09T13:15:00.863Z,35.91
2023-07-09T13:17:32.377Z,35.83
2023-07-09T13:20:01.209Z,35.74
2023-07-09T13:22:30.161Z,35.69
2023-07-09T13:24:56.962Z,35.87
2023-07-09T13:27:24.627Z,35.87
2023-07-09T13:29:52.150Z,35.94
2023-07-09T13:32:20.872Z,36.04
2023-07-09T13:34:47.378Z,36.13
2023-07-09T13:37:16.587Z,36.07
2023-07-09T13:39:46.479Z,35.99
2023-07-09T13:42:15.605Z,36.00
2023-07-09T13:44:44.384Z,35.92
2023-07-09T13:47:19.835Z,36.03
2023-07-09T13:49:50.758Z,35.98
2023-07-09T13:52:24.389Z,35.87
2023-07-09T13:54:51.285Z,35.73
2023-07-09T13:57:22.702Z,35.73
2023-07-09T13:59:52.742Z,35.67
2023-07-09T14:02:33.817Z,35.67
2023-07-09T14:05:03.235Z,35.66
2023-07-09T14:07:33.908Z,35.80
2023-07-09T14:10:01.218Z,35.94
2023-07-09T14:12:29.291Z,35.90
2023-07-09T14:15:00.223Z,35.98
2023-07-09T14:17:29.992Z,36.06
2023-07-09T14:19:57.340Z,36.02
2023-07-09T14:22:44.727Z,35.79
2023-07-09T14:25:25.698Z,35.76
2023-07-09T14:27:54.566Z,35.62
2023-07-09T14:30:25.756Z,35.73
2023-07-09T14:32:53.768Z,35.67
2023-07-09T14:35:22.527Z,35.65
2023-07-09T14:37:51.875Z,35.77
2023-07-09T14:40:20.869Z,35.98
2023-07-09T14:42:48.892Z,35.90
2023-07-09T14:45:21.801Z,35.88
2023-07-09T14:47:51.623Z,35.92
2023-07-09T14:50:25.655Z,35.91
2023-07-09T14:52:52.247Z,35.94
2023-07-09T14:55:25.259Z,35.91
2023-07-09T14:57:51.888Z,35.83
2023-07-09T15:00:20.696Z,35.78
2023-07-09T15:02:53.529Z,35.76
2023-07-09T15:05:22.562Z,35.78
2023-07-09T15:07:51.406Z,35.72
2023-07-09T15:10:30.703Z,35.69
2023-07-09T15:12:57.625Z,35.77
2023-07-09T15:15:27.833Z,35.59
2023-07-09T15:17:56.398Z,35.57
2023-07-09T15:20:29.185Z,35.45
2023-07-09T15:23:00.141Z,35.40
2023-07-09T15:25:29.765Z,35.25
2023-07-09T15:27:57.325Z,35.14
2023-07-09T15:30:26.405Z,35.29
2023-07-09T15:32:59.997Z,35.27
2023-07-09T15:35:36.483Z,35.23
2023-07-09T15:38:23.454Z,35.38
2023-07-09T15:40:52.984Z,35.44
2023-07-09T15:43:19.573Z,35.50
2023-07-09T15:45:49.206Z,35.52
2023-07-09T15:48:26.614Z,35.45
2023-07-09T15:50:53.489Z,35.46
2023-07-09T15:53:23.601Z,35.48
2023-07-09T15:55:54.264Z,35.44
2023-07-09T15:58:33.013Z,35.35
2023-07-09T16:00:59.684Z,35.24
2023-07-09T16:03:28.311Z,35.01
2023-07-09T16:05:57.364Z,34.80
2023-07-09T16:08:23.880Z,34.58
2023-07-09T16:10:50.618Z,34.45
2023-07-09T16:13:29.266Z,34.33
2023-07-09T16:16:00.426Z,34.35
2023-07-09T16:18:27.997Z,34.33
2023-07-09T16:20:57.924Z,34.33
2023-07-09T16:23:24.502Z,34.24
2023-07-09T16:25:51.568Z,34.21
2023-07-09T16:28:20.685Z,34.13
2023-07-09T16:30:49.617Z,33.96
2023-07-09T16:33:16.282Z,33.93
2023-07-09T16:35:43.397Z,33.85
2023-07-09T16:38:13.772Z,33.69
2023-07-09T16:40:40.928Z,33.64
2023-07-09T16:43:16.200Z,33.57
2023-07-09T16:45:45.773Z,33.50
2023-07-09T16:48:21.753Z,33.52
2023-07-09T16:50:51.401Z,33.46
2023-07-09T16:53:19.873Z,33.43
2023-07-09T16:55:48.115Z,33.34
2023-07-09T16:58:25.872Z,33.30
2023-07-09T17:00:52.403Z,33.24
2023-07-09T17:03:19.003Z,33.21
2023-07-09T17:05:45.722Z,33.15
2023-07-09T17:08:12.242Z,33.08
2023-07-09T17:10:44.272Z,33.03
2023-07-09T17:13:25.364Z,33.01
2023-07-09T17:15:52.894Z,32.95
2023-07-09T17:18:20.907Z,32.89
2023-07-09T17:20:49.508Z,32.79
2023-07-09T17:23:19.195Z,32.73
2023-07-09T17:25:47.052Z,32.67
2023-07-09T17:28:20.598Z,32.63
2023-07-09T17:30:48.230Z,32.58
2023-07-09T17:33:15.458Z,32.46
2023-07-09T17:35:44.423Z,32.41
2023-07-09T17:38:16.766Z,32.30
2023-07-09T17:40:44.361Z,32.26
2023-07-09T17:43:22.806Z,32.21
2023-07-09T17:45:51.527Z,32.14
2023-07-09T17:48:22.662Z,32.07
2023-07-09T17:50:49.395Z,32.02
2023-07-09T17:53:21.723Z,31.92
2023-07-09T17:55:49.238Z,31.83
2023-07-09T17:58:26.553Z,31.72
2023-07-09T18:00:55.670Z,31.63
2023-07-09T18:03:24.036Z,31.57
2023-07-09T18:05:50.941Z,31.47
2023-07-09T18:08:20.501Z,31.44
2023-07-09T18:10:48.538Z,31.38
2023-07-09T18:13:18.118Z,31.35
2023-07-09T18:15:45.615Z,31.24
2023-07-09T18:18:13.945Z,31.21
2023-07-09T18:20:45.538Z,31.15
2023-07-09T18:23:11.964Z,31.06
2023-07-09T18:25:40.482Z,30.99
2023-07-09T18:28:11.644Z,30.98
2023-07-09T18:30:40.412Z,30.90
2023-07-09T18:33:07.093Z,30.85
2023-07-09T18:35:38.810Z,30.77
2023-07-09T18:38:11.035Z,30.69
2023-07-09T18:40:41.203Z,30.61
2023-07-09T18:43:30.861Z,30.54
2023-07-09T18:45:58.828Z,30.47
2023-07-09T18:48:26.216Z,30.38
2023-07-09T18:50:56.097Z,30.34
2023-07-09T18:53:23.525Z,30.34
2023-07-09T18:55:50.857Z,30.58
2023-07-09T18:58:30.796Z,30.62
2023-07-09T19:01:00.308Z,30.67
2023-07-09T19:03:32.079Z,30.69
2023-07-09T19:05:59.715Z,30.73
2023-07-09T19:08:28.593Z,30.70
2023-07-09T19:10:55.838Z,30.73
2023-07-09T19:13:22.584Z,30.73
2023-07-09T19:15:51.215Z,30.70
2023-07-09T19:18:24.953Z,30.67
2023-07-09T19:20:56.358Z,30.57
2023-07-09T19:23:24.126Z,30.48
2023-07-09T19:25:52.365Z,30.45
2023-07-09T19:28:20.973Z,30.44
2023-07-09T19:30:49.324Z,30.39
2023-07-09T19:33:22.977Z,30.32
2023-07-09T19:35:49.587Z,30.27
2023-07-09T19:38:16.221Z,30.14
2023-07-09T19:40:42.754Z,30.11
2023-07-09T19:43:12.591Z,30.01
2023-07-09T19:45:45.210Z,29.90
2023-07-09T19:48:25.200Z,29.87
2023-07-09T19:50:54.048Z,29.78
2023-07-09T19:53:28.336Z,29.71
2023-07-09T19:55:56.525Z,29.63
2023-07-09T19:58:23.326Z,29.61
2023-07-09T20:00:53.085Z,29.59
2023-07-09T20:03:26.381Z,29.51
2023-07-09T20:05:56.082Z,29.41
2023-07-09T20:08:24.112Z,29.38
2023-07-09T20:11:07.564Z,29.31
2023-07-09T20:13:37.358Z,29.12
2023-07-09T20:16:04.578Z,29.10
2023-07-09T20:18:33.846Z,29.04
2023-07-09T20:21:14.044Z,28.86
2023-07-09T20:23:40.475Z,28.66
2023-07-09T20:26:09.380Z,28.31
2023-07-09T20:28:37.931Z,28.25
2023-07-09T20:31:19.075Z,28.10
2023-07-09T20:33:45.562Z,28.15
2023-07-09T20:36:12.032Z,28.00
2023-07-09T20:38:38.652Z,27.87
2023-07-09T20:41:09.372Z,27.72
2023-07-09T20:43:40.576Z,27.63
2023-07-09T20:46:09.817Z,27.56
2023-07-09T20:48:37.318Z,27.42
2023-07-09T20:51:04.230Z,27.31
2023-07-09T20:53:31.409Z,27.15
2023-07-09T20:56:01.287Z,27.09
2023-07-09T20:58:29.400Z,27.00
2023-07-09T21:00:56.112Z,26.97
2023-07-09T21:03:26.313Z,26.89
2023-07-09T21:05:53.822Z,26.84
2023-07-09T21:08:25.674Z,26.74
2023-07-09T21:10:52.640Z,26.68
2023-07-09T21:13:25.297Z,26.60
2023-07-09T21:15:57.856Z,26.51
2023-07-09T21:18:35.426Z,26.50
2023-07-09T21:21:02.509Z,26.42
2023-07-09T21:23:28.954Z,26.31
2023-07-09T21:25:55.426Z,26.17
2023-07-09T21:28:21.856Z,26.11
2023-07-09T21:30:48.916Z,26.00
2023-07-09T21:33:19.097Z,25.95
2023-07-09T21:35:47.428Z,25.92
2023-07-09T21:38:22.836Z,25.88
2023-07-09T21:40:54.065Z,25.85
2023-07-09T21:43:21.044Z,25.86
2023-07-09T21:45:54.491Z,25.85
2023-07-09T21:48:27.131Z,25.81
2023-07-09T21:50:54.362Z,25.87
2023-07-09T21:53:39.639Z,25.95
2023-07-09T21:56:13.063Z,25.98
2023-07-09T21:58:40.366Z,25.95
2023-07-09T22:01:17.825Z,25.91
2023-07-09T22:03:44.577Z,25.84
2023-07-09T22:06:16.101Z,25.83
2023-07-09T22:08:47.239Z,25.73
2023-07-09T22:11:28.226Z,25.62
2023-07-09T22:13:56.662Z,25.60
2023-07-09T22:16:24.052Z,25.59
2023-07-09T22:18:50.572Z,25.53
2023-07-09T22:21:17.061Z,25.54
2023-07-09T22:23:46.236Z,25.52
2023-07-09T22:26:12.711Z,25.54
2023-07-09T22:28:39.217Z,25.60
2023-07-09T22:31:08.912Z,25.63
2023-07-09T22:33:35.320Z,25.62
2023-07-09T22:36:02.006Z,25.56
2023-07-09T22:38:30.990Z,25.50
2023-07-09T22:40:57.527Z,25.36
2023-07-09T22:43:24.060Z,25.29
2023-07-09T22:45:51.798Z,25.37
2023-07-09T22:48:21.895Z,25.36
2023-07-09T22:50:49.621Z,25.38
2023-07-09T22:53:18.272Z,25.42
2023-07-09T22:55:47.693Z,25.48
2023-07-09T22:58:18.769Z,25.50
2023-07-09T23:00:53.296Z,25.51
2023-07-09T23:03:24.968Z,25.47
2023-07-09T23:05:56.228Z,25.49
2023-07-09T23:08:26.541Z,25.55
2023-07-09T23:10:57.136Z,25.69
2023-07-09T23:13:34.957Z,25.78
2023-07-09T23:16:03.260Z,25.84
2023-07-09T23:18:31.045Z,25.82
2023-07-09T23:20:58.098Z,25.82
2023-07-09T23:23:24.743Z,25.87
2023-07-09T23:25:57.385Z,25.89
2023-07-09T23:28:24.687Z,25.87
2023-07-09T23:30:54.284Z,25.90
2023-07-09T23:33:29.854Z,25.79
2023-07-09T23:36:03.081Z,25.79
2023-07-09T23:38:32.046Z,25.71
2023-07-09T23:41:00.694Z,25.70
2023-07-09T23:43:32.049Z,25.62
2023-07-09T23:46:02.368Z,25.61
2023-07-09T23:48:32.862Z,25.60
2023-07-09T23:51:07.589Z,25.55
2023-07-09T23:53:34.994Z,25.46
2023-07-09T23:56:23.070Z,25.42
2023-07-09T23:58:50.148Z,25.34
